createdAt,value
2023-04-11T00:00:39.331Z,145004.84
2023-04-11T00:03:43.447Z,145115.25
2023-04-11T00:06:17.399Z,144887.22
2023-04-11T00:12:04.573Z,145116.44
2023-04-11T00:15:15.686Z,145115.25
2023-04-11T00:18:01.708Z,144980.59
2023-04-11T00:21:01.937Z,144962.44
2023-04-11T00:23:43.779Z,144886.03
2023-04-11T00:26:26.630Z,145123.69
2023-04-11T00:29:08.293Z,145308.22
2023-04-11T00:31:58.747Z,145067.91
2023-04-11T00:34:47.763Z,145089.75
2023-04-11T00:37:41.551Z,144911.50
2023-04-11T00:40:34.984Z,145160.09
2023-04-11T00:43:18.703Z,145313.06
2023-04-11T00:46:02.930Z,145058.22
2023-04-11T00:48:39.214Z,144918.75
2023-04-11T00:51:23.954Z,145047.31
2023-04-11T00:54:14.610Z,145089.75
2023-04-11T00:56:51.514Z,145092.22
2023-04-11T00:59:22.307Z,145023.03
2023-04-11T01:02:15.841Z,144985.47
2023-04-11T01:04:49.991Z,144855.75
2023-04-11T01:07:24.284Z,144827.84
2023-04-11T01:10:00.145Z,145109.16
2023-04-11T01:12:37.736Z,144849.66
2023-04-11T01:15:14.007Z,145058.22
2023-04-11T01:18:04.828Z,145021.84
2023-04-11T01:20:55.501Z,145106.75
2023-04-11T01:26:49.538Z,145072.75
2023-04-11T01:29:29.358Z,145235.34
2023-04-11T01:32:11.953Z,145114.00
2023-04-11T01:34:56.933Z,144973.31
2023-04-11T01:37:54.524Z,145155.25
2023-04-11T01:40:38.023Z,144832.69
2023-04-11T01:43:15.627Z,144956.38
2023-04-11T01:45:50.019Z,144801.22
2023-04-11T01:48:34.846Z,145246.25
2023-04-11T01:51:15.783Z,145235.34
2023-04-11T01:53:49.732Z,145038.81
2023-04-11T01:59:02.415Z,144913.91
2023-04-11T02:01:33.666Z,144861.81
2023-04-11T02:04:01.899Z,145140.69
2023-04-11T02:06:50.472Z,145046.06
2023-04-11T02:09:22.852Z,145140.69
2023-04-11T02:11:59.642Z,145046.06
2023-04-11T02:14:48.679Z,144949.09
2023-04-11T02:17:26.615Z,145247.50
2023-04-11T02:20:13.139Z,145239.00
2023-04-11T02:22:46.085Z,145054.56
2023-04-11T02:25:27.100Z,145071.56
2023-04-11T02:27:56.180Z,145106.75
2023-04-11T02:30:24.914Z,145192.91
2023-04-11T02:32:55.487Z,144835.13
2023-04-11T02:38:48.450Z,144853.31
2023-04-11T02:41:52.598Z,144920.00
2023-04-11T02:44:45.249Z,145021.84
2023-04-11T02:47:49.324Z,144818.16
2023-04-11T02:57:12.136Z,145133.44
2023-04-11T02:59:48.660Z,144755.13
2023-04-11T03:02:31.784Z,144910.31
2023-04-11T03:05:27.149Z,144972.13
2023-04-11T03:07:54.962Z,145184.41
2023-04-11T03:10:25.043Z,144833.94
2023-04-11T03:12:52.315Z,145071.56
2023-04-11T03:15:35.551Z,145094.59
2023-04-11T03:18:20.881Z,144836.34
2023-04-11T03:20:53.977Z,145048.53
2023-04-11T03:26:38.437Z,144940.59
2023-04-11T03:29:13.827Z,144781.78
2023-04-11T03:31:58.391Z,145067.91
2023-04-11T03:34:28.846Z,144739.41
2023-04-11T03:37:02.478Z,144778.16
2023-04-11T03:39:38.914Z,145000.00
2023-04-11T03:42:08.674Z,144797.56
2023-04-11T03:44:55.669Z,144992.75
2023-04-11T03:47:54.779Z,145160.09
2023-04-11T03:50:28.305Z,144692.16
2023-04-11T03:52:59.614Z,144839.97
2023-04-11T03:58:45.203Z,144772.09
2023-04-11T04:01:18.651Z,144957.56
2023-04-11T04:03:48.037Z,145021.84
2023-04-11T04:06:16.340Z,145014.53
2023-04-11T04:08:44.401Z,145024.28
2023-04-11T04:11:11.746Z,145020.63
2023-04-11T04:13:38.972Z,145031.53
2023-04-11T04:16:17.563Z,145021.84
2023-04-11T04:18:50.403Z,145025.47
2023-04-11T04:21:17.892Z,145060.66
2023-04-11T04:23:47.547Z,145007.28
2023-04-11T04:26:33.616Z,145058.22
2023-04-11T04:29:34.156Z,144966.06
2023-04-11T04:32:10.649Z,144980.59
2023-04-11T04:34:46.968Z,145001.25
2023-04-11T04:37:21.926Z,144995.16
2023-04-11T04:39:57.829Z,144992.75
2023-04-11T04:42:30.009Z,144976.97
2023-04-11T04:45:02.880Z,144939.38
2023-04-11T04:47:35.711Z,144976.97
2023-04-11T04:50:03.814Z,144810.91
2023-04-11T04:52:31.912Z,144944.22
2023-04-11T04:54:59.334Z,144943.03
2023-04-11T04:57:32.163Z,144933.34
2023-04-11T04:59:59.846Z,144884.84
2023-04-11T05:02:27.223Z,144953.94
2023-04-11T05:04:56.890Z,144975.75
2023-04-11T05:07:26.417Z,144952.72
2023-04-11T05:09:53.550Z,144979.41
2023-04-11T05:12:27.054Z,144990.31
2023-04-11T05:14:58.699Z,145007.28
2023-04-11T05:17:29.497Z,145026.69
2023-04-11T05:19:57.176Z,145020.63
2023-04-11T05:22:25.016Z,145002.44
2023-04-11T05:24:54.950Z,145064.28
2023-04-11T05:27:22.060Z,145084.91
2023-04-11T05:29:49.090Z,145063.06
2023-04-11T05:32:18.083Z,145057.03
2023-04-11T05:34:58.694Z,145082.47
2023-04-11T05:37:34.614Z,145105.50
2023-04-11T05:40:01.686Z,145101.91
2023-04-11T05:42:28.802Z,145093.41
2023-04-11T05:44:55.897Z,145080.06
2023-04-11T05:47:23.557Z,145072.75
2023-04-11T05:49:50.751Z,145084.91
2023-04-11T05:52:17.871Z,145012.13
2023-04-11T05:54:44.865Z,145065.50
2023-04-11T05:57:11.879Z,145115.25
2023-04-11T05:59:38.894Z,145128.59
2023-04-11T06:02:06.300Z,145121.31
2023-04-11T06:04:33.678Z,145094.59
2023-04-11T06:07:02.519Z,145121.31
2023-04-11T06:09:30.172Z,145140.69
2023-04-11T06:11:58.395Z,145134.66
2023-04-11T06:14:25.552Z,145126.16
2023-04-11T06:16:52.597Z,145138.31
2023-04-11T06:19:19.613Z,145155.25
2023-04-11T06:21:46.696Z,145154.06
2023-04-11T06:24:15.626Z,145161.34
2023-04-11T06:26:42.695Z,145158.91
2023-04-11T06:29:10.283Z,145165.00
2023-04-11T06:31:37.407Z,145181.94
2023-04-11T06:34:04.398Z,145207.44
2023-04-11T06:36:31.519Z,145165.00
2023-04-11T06:38:58.591Z,145196.50
2023-04-11T06:41:25.632Z,145228.06
2023-04-11T06:43:52.645Z,145213.50
2023-04-11T06:46:19.717Z,145165.00
2023-04-11T06:48:46.767Z,145151.66
2023-04-11T06:51:13.776Z,145197.75
2023-04-11T06:53:40.768Z,145213.50
2023-04-11T06:56:08.464Z,145249.91
2023-04-11T06:58:35.651Z,145279.09
2023-04-11T07:01:02.695Z,145268.16
2023-04-11T07:03:30.995Z,145281.50
2023-04-11T07:05:58.221Z,145225.66
2023-04-11T07:08:25.263Z,145232.91
2023-04-11T07:10:52.310Z,145279.09
2023-04-11T07:13:21.185Z,145215.94
2023-04-11T07:15:48.308Z,145231.69
2023-04-11T07:18:15.395Z,145223.19
2023-04-11T07:20:42.494Z,145203.78
2023-04-11T07:23:09.519Z,145241.41
2023-04-11T07:25:36.832Z,145303.38
2023-04-11T07:28:08.383Z,145339.78
2023-04-11T07:30:38.641Z,145286.34
2023-04-11T07:33:05.786Z,145294.88
2023-04-11T07:35:34.735Z,145320.38
2023-04-11T07:38:01.864Z,145378.59
2023-04-11T07:40:29.039Z,145361.63
2023-04-11T07:42:56.101Z,145348.28
2023-04-11T07:45:23.226Z,145356.78
2023-04-11T07:47:50.497Z,145298.50
2023-04-11T07:50:17.724Z,145219.59
2023-04-11T07:52:44.743Z,145279.09
2023-04-11T07:55:11.821Z,145235.34
2023-04-11T07:57:38.841Z,145266.94
2023-04-11T08:00:06.779Z,145242.66
2023-04-11T08:02:39.236Z,145246.25
2023-04-11T08:05:11.154Z,145242.66
2023-04-11T08:07:38.282Z,145228.06
2023-04-11T08:10:07.130Z,145200.16
2023-04-11T08:12:34.190Z,145184.41
2023-04-11T08:15:01.260Z,145218.34
2023-04-11T08:17:29.324Z,145266.94
2023-04-11T08:19:57.839Z,145273.00
2023-04-11T08:22:24.926Z,145365.28
2023-04-11T08:24:52.128Z,145436.88
2023-04-11T08:27:19.126Z,145498.84
2023-04-11T08:29:46.129Z,145575.38
2023-04-11T08:32:13.131Z,145572.91
2023-04-11T08:34:40.226Z,145653.13
2023-04-11T08:37:07.374Z,145767.41
2023-04-11T08:39:34.452Z,145779.53
2023-04-11T08:42:01.509Z,145741.84
2023-04-11T08:44:28.566Z,145783.19
2023-04-11T08:46:55.673Z,145751.56
2023-04-11T08:49:22.681Z,145734.59
2023-04-11T08:51:53.644Z,145653.13
2023-04-11T08:54:20.752Z,145659.19
2023-04-11T08:56:47.993Z,145693.22
2023-04-11T08:59:15.006Z,145801.41
2023-04-11T09:01:42.245Z,145823.31
2023-04-11T09:04:11.322Z,145778.31
2023-04-11T09:06:40.050Z,145726.09
2023-04-11T09:09:07.987Z,145726.09
2023-04-11T09:11:54.703Z,145718.78
2023-04-11T09:14:24.973Z,145689.56
2023-04-11T09:17:06.117Z,145757.69
2023-04-11T09:19:34.910Z,145792.91
2023-04-11T09:22:05.791Z,145769.81
2023-04-11T09:24:35.231Z,145868.28
2023-04-11T09:27:13.850Z,145833.03
2023-04-11T09:29:43.272Z,145823.31
2023-04-11T09:32:31.090Z,145860.97
2023-04-11T09:35:18.755Z,145845.19
2023-04-11T09:37:56.184Z,145893.78
2023-04-11T09:40:31.407Z,145935.19
2023-04-11T09:43:00.718Z,145954.63
2023-04-11T09:45:30.859Z,145925.41
2023-04-11T09:47:59.802Z,146072.63
2023-04-11T09:50:28.048Z,146061.63
2023-04-11T09:52:59.399Z,146062.91
2023-04-11T09:55:26.992Z,146154.19
2023-04-11T09:57:54.712Z,146131.03
2023-04-11T10:00:30.052Z,146109.16
2023-04-11T10:02:57.340Z,146183.38
2023-04-11T10:05:30.375Z,146032.47
2023-04-11T10:08:05.799Z,146120.09
2023-04-11T10:10:33.035Z,146229.63
2023-04-11T10:13:00.275Z,145988.66
2023-04-11T10:15:27.939Z,146076.28
2023-04-11T10:18:13.749Z,146197.97
2023-04-11T10:20:43.610Z,146224.75
2023-04-11T10:23:11.272Z,146236.94
2023-04-11T10:25:55.926Z,146289.25
2023-04-11T10:28:31.867Z,146289.25
2023-04-11T10:31:04.663Z,146205.28
2023-04-11T10:33:32.823Z,146142.00
2023-04-11T10:36:12.193Z,146096.97
2023-04-11T10:38:48.465Z,146122.56
2023-04-11T10:41:34.083Z,146243.00
2023-04-11T10:44:24.815Z,146348.91
2023-04-11T10:46:54.455Z,146409.88
2023-04-11T10:49:32.710Z,146346.50
2023-04-11T10:52:18.581Z,146188.25
2023-04-11T10:54:48.590Z,145999.63
2023-04-11T10:57:15.743Z,145857.31
2023-04-11T10:59:42.773Z,145839.09
2023-04-11T11:02:10.028Z,145741.84
2023-04-11T11:04:38.700Z,145745.50
2023-04-11T11:07:08.105Z,145794.16
2023-04-11T11:09:35.383Z,145823.31
2023-04-11T11:12:12.816Z,145823.31
2023-04-11T11:14:45.745Z,145881.66
2023-04-11T11:17:14.712Z,145959.50
2023-04-11T11:19:45.207Z,146015.41
2023-04-11T11:22:25.366Z,146056.78
2023-04-11T11:24:52.848Z,146050.72
2023-04-11T11:27:21.246Z,146010.56
2023-04-11T11:29:48.275Z,145983.81
2023-04-11T11:32:28.491Z,145937.59
2023-04-11T11:34:57.408Z,145936.38
2023-04-11T11:37:24.808Z,145995.97
2023-04-11T11:39:52.198Z,146105.50
2023-04-11T11:42:19.536Z,146180.91
2023-04-11T11:44:46.668Z,146124.97
2023-04-11T11:47:16.552Z,146180.91
2023-04-11T11:49:48.314Z,146098.19
2023-04-11T11:52:34.730Z,146132.28
2023-04-11T11:55:08.714Z,146123.75
2023-04-11T11:57:37.325Z,146127.41
2023-04-11T12:00:10.409Z,146137.13
2023-04-11T12:02:39.432Z,146223.53
2023-04-11T12:05:07.884Z,146348.91
2023-04-11T12:07:37.798Z,146307.50
2023-04-11T12:10:11.796Z,146263.72
2023-04-11T12:12:41.770Z,146200.44
2023-04-11T12:15:17.338Z,146157.81
2023-04-11T12:17:51.881Z,146132.28
2023-04-11T12:20:23.841Z,146133.47
2023-04-11T12:22:52.131Z,146148.06
2023-04-11T12:25:22.197Z,146115.22
2023-04-11T12:27:49.248Z,146142.00
2023-04-11T12:30:16.551Z,146104.31
2023-04-11T12:32:44.892Z,146120.09
2023-04-11T12:35:12.811Z,146053.13
2023-04-11T12:37:40.257Z,146048.25
2023-04-11T12:40:12.094Z,146003.25
2023-04-11T12:42:49.482Z,146065.31
2023-04-11T12:45:22.916Z,145998.38
2023-04-11T12:47:50.091Z,146056.78
2023-04-11T12:50:17.664Z,146034.88
2023-04-11T12:52:44.800Z,146042.19
2023-04-11T12:55:13.358Z,146062.91
2023-04-11T12:57:41.434Z,146095.78
2023-04-11T13:00:11.503Z,146122.56
2023-04-11T13:02:43.910Z,146188.25
2023-04-11T13:05:15.046Z,146207.69
2023-04-11T13:07:44.841Z,146257.59
2023-04-11T13:10:13.862Z,146324.56
2023-04-11T13:12:44.248Z,146251.53
2023-04-11T13:15:12.845Z,146188.25
2023-04-11T13:17:40.200Z,146156.59
2023-04-11T13:20:10.723Z,146163.91
2023-04-11T13:22:43.425Z,146239.34
2023-04-11T13:25:11.923Z,146331.84
2023-04-11T13:27:41.689Z,146347.69
2023-04-11T13:30:10.443Z,146365.97
2023-04-11T13:32:37.615Z,146344.03
2023-04-11T13:35:06.280Z,146352.56
2023-04-11T13:37:33.366Z,146428.13
2023-04-11T13:40:00.465Z,146404.91
2023-04-11T13:42:27.575Z,146419.59
2023-04-11T13:44:54.679Z,146383.03
2023-04-11T13:47:21.739Z,146330.63
2023-04-11T13:49:48.818Z,146280.72
2023-04-11T13:52:15.986Z,146292.91
2023-04-11T13:54:43.061Z,146210.16
2023-04-11T13:57:10.097Z,146219.88
2023-04-11T13:59:37.149Z,146174.84
2023-04-11T14:02:04.621Z,146078.72
2023-04-11T14:04:31.773Z,146075.03
2023-04-11T14:06:58.844Z,146154.19
2023-04-11T14:09:26.059Z,146123.75
2023-04-11T14:11:53.121Z,146159.06
2023-04-11T14:14:20.392Z,146229.63
2023-04-11T14:16:47.622Z,146173.66
2023-04-11T14:19:14.686Z,146297.78
2023-04-11T14:21:41.848Z,146348.91
2023-04-11T14:24:09.496Z,146436.63
2023-04-11T14:26:36.545Z,146441.47
2023-04-11T14:29:04.322Z,146486.56
2023-04-11T14:31:31.836Z,146439.06
2023-04-11T14:33:59.254Z,146386.63
2023-04-11T14:36:27.751Z,146426.88
2023-04-11T14:38:54.824Z,146426.88
2023-04-11T14:41:21.896Z,146319.69
2023-04-11T14:43:48.918Z,146380.56
2023-04-11T14:46:16.105Z,146300.25
2023-04-11T14:48:43.218Z,146297.78
2023-04-11T14:51:10.469Z,146277.06
2023-04-11T14:53:37.596Z,146356.22
2023-04-11T14:56:08.064Z,146251.53
2023-04-11T14:58:35.098Z,146334.31
2023-04-11T15:01:02.365Z,146326.97
2023-04-11T15:03:29.675Z,146350.13
2023-04-11T15:05:56.998Z,146247.88
2023-04-11T15:08:24.056Z,146345.25
2023-04-11T15:10:54.082Z,146300.25
2023-04-11T15:13:22.519Z,146319.69
2023-04-11T15:15:49.721Z,146326.97
2023-04-11T15:18:27.923Z,146326.97
2023-04-11T15:21:00.537Z,146302.66
2023-04-11T15:23:27.649Z,146307.50
2023-04-11T15:26:00.364Z,146339.16
2023-04-11T15:28:30.343Z,146324.56
2023-04-11T15:30:57.741Z,146278.31
2023-04-11T15:33:25.521Z,146185.78
2023-04-11T15:35:53.759Z,146196.75
2023-04-11T15:38:21.733Z,146334.31
2023-04-11T15:40:50.563Z,146307.50
2023-04-11T15:43:17.991Z,146419.59
2023-04-11T15:45:45.138Z,146557.22
2023-04-11T15:48:15.761Z,146848.56
2023-04-11T15:50:43.789Z,147058.31
2023-04-11T15:53:11.606Z,147048.56
2023-04-11T15:55:42.887Z,147129.09
2023-04-11T15:58:10.548Z,147077.88
2023-04-11T16:00:38.934Z,147031.47
2023-04-11T16:03:06.267Z,146865.59
2023-04-11T16:05:33.737Z,146990.00
2023-04-11T16:08:01.391Z,146832.69
2023-04-11T16:10:30.033Z,146560.88
2023-04-11T16:12:57.290Z,146624.19
2023-04-11T16:15:24.329Z,146563.31
2023-04-11T16:17:51.514Z,146548.69
2023-04-11T16:20:21.211Z,146563.31
2023-04-11T16:22:48.516Z,146526.75
2023-04-11T16:25:18.690Z,146386.63
2023-04-11T16:27:45.773Z,146400.03
2023-04-11T16:30:13.015Z,146397.63
2023-04-11T16:32:40.014Z,146719.31
2023-04-11T16:35:34.135Z,146759.53
2023-04-11T16:38:01.633Z,146577.91
2023-04-11T16:40:30.405Z,146467.06
2023-04-11T16:42:57.433Z,146376.91
2023-04-11T16:45:24.490Z,146328.22
2023-04-11T16:47:51.584Z,146286.84
2023-04-11T16:50:19.044Z,146142.00
2023-04-11T16:52:46.124Z,146127.41
2023-04-11T16:55:14.874Z,146061.63
2023-04-11T16:57:41.905Z,146072.63
2023-04-11T17:00:16.916Z,146054.38
2023-04-11T17:02:44.220Z,146038.53
2023-04-11T17:05:11.488Z,146000.84
2023-04-11T17:07:38.922Z,146032.47
2023-04-11T17:10:07.055Z,146020.28
2023-04-11T17:12:34.093Z,146005.69
2023-04-11T17:15:01.152Z,146163.91
2023-04-11T17:17:28.494Z,146114.03
2023-04-11T17:19:55.785Z,146084.81
2023-04-11T17:22:23.240Z,146061.63
2023-04-11T17:24:50.382Z,146015.41
2023-04-11T17:27:17.507Z,145921.81
2023-04-11T17:29:45.231Z,146003.25
2023-04-11T17:32:12.261Z,146010.56
2023-04-11T17:34:39.372Z,145966.75
2023-04-11T17:37:06.525Z,145978.94
2023-04-11T17:39:33.578Z,145857.31
2023-04-11T17:42:01.272Z,145910.84
2023-04-11T17:44:28.410Z,145933.94
2023-04-11T17:46:55.807Z,145914.50
2023-04-11T17:49:24.874Z,145870.69
2023-04-11T17:51:58.955Z,145896.25
2023-04-11T17:54:27.031Z,145898.69
2023-04-11T17:56:54.182Z,145837.88
2023-04-11T17:59:21.332Z,145781.97
2023-04-11T18:01:48.470Z,145768.59
2023-04-11T18:04:16.008Z,145747.97
2023-04-11T18:06:46.107Z,145745.50
2023-04-11T18:09:13.913Z,145735.78
2023-04-11T18:11:41.975Z,145675.00
2023-04-11T18:14:09.445Z,145701.75
2023-04-11T18:16:38.702Z,145675.00
2023-04-11T18:19:05.943Z,145617.88
2023-04-11T18:21:32.951Z,145587.50
2023-04-11T18:24:00.255Z,145580.22
2023-04-11T18:26:27.456Z,145563.22
2023-04-11T18:28:54.517Z,145552.28
2023-04-11T18:31:22.052Z,145529.22
2023-04-11T18:33:49.124Z,145517.06
2023-04-11T18:36:16.235Z,145439.34
2023-04-11T18:38:43.956Z,145509.75
2023-04-11T18:41:11.012Z,145503.69
2023-04-11T18:43:38.852Z,145500.03
2023-04-11T18:46:07.746Z,145470.91
2023-04-11T18:48:35.069Z,145475.78
2023-04-11T18:51:03.478Z,145441.75
2023-04-11T18:53:30.904Z,145418.69
2023-04-11T18:56:02.870Z,145371.34
2023-04-11T18:58:31.858Z,145395.63
2023-04-11T19:01:14.109Z,145293.66
2023-04-11T19:03:43.745Z,145332.47
2023-04-11T19:06:11.581Z,145337.31
2023-04-11T19:08:38.745Z,145347.09
2023-04-11T19:11:05.870Z,145339.78
2023-04-11T19:13:33.018Z,145355.53
2023-04-11T19:16:00.242Z,145320.38
2023-04-11T19:18:27.305Z,145322.78
2023-04-11T19:20:54.562Z,145300.91
2023-04-11T19:23:21.661Z,145281.50
2023-04-11T19:25:48.706Z,145262.09
2023-04-11T19:28:15.962Z,145196.50
2023-04-11T19:30:43.096Z,145225.66
2023-04-11T19:33:10.380Z,145236.56
2023-04-11T19:35:37.686Z,145226.84
2023-04-11T19:38:06.289Z,145224.44
2023-04-11T19:40:37.361Z,145099.47
2023-04-11T19:43:09.204Z,145017.00
2023-04-11T19:45:36.817Z,145032.72
2023-04-11T19:48:04.304Z,144958.78
2023-04-11T19:50:34.561Z,144980.59
2023-04-11T19:53:04.407Z,144837.56
2023-04-11T19:55:51.434Z,145040.03
2023-04-11T19:58:26.857Z,145084.91
2023-04-11T20:00:56.832Z,145106.75
2023-04-11T20:03:32.647Z,145007.28
2023-04-11T20:06:05.674Z,145000.00
2023-04-11T20:08:34.862Z,144781.78
2023-04-11T20:11:05.674Z,144832.69
2023-04-11T20:13:34.008Z,144985.47
2023-04-11T20:16:09.678Z,144903.00
2023-04-11T20:18:39.694Z,144993.94
2023-04-11T20:21:10.924Z,144769.72
2023-04-11T20:23:41.925Z,144781.78
2023-04-11T20:26:09.588Z,144832.69
2023-04-11T20:28:42.015Z,144837.56
2023-04-11T20:31:13.871Z,144728.50
2023-04-11T20:33:41.252Z,144939.38
2023-04-11T20:36:09.486Z,144864.22
2023-04-11T20:38:40.341Z,144694.56
2023-04-11T20:41:09.356Z,145063.06
2023-04-11T20:43:42.168Z,144953.94
2023-04-11T20:46:16.624Z,144825.44
2023-04-11T20:48:46.374Z,144781.78
2023-04-11T20:51:20.901Z,144934.53
2023-04-11T20:53:58.789Z,144692.16
2023-04-11T20:56:35.154Z,145050.94
2023-04-11T20:59:04.947Z,144839.97
2023-04-11T21:01:34.903Z,144922.41
2023-04-11T21:04:03.339Z,144841.19
2023-04-11T21:06:37.820Z,144694.56
2023-04-11T21:09:05.960Z,144799.97
2023-04-11T21:11:39.586Z,144820.59
2023-04-11T21:14:07.203Z,144767.25
2023-04-11T21:16:39.855Z,145007.28
2023-04-11T21:19:08.130Z,145004.84
2023-04-11T21:21:40.871Z,144635.16
2023-04-11T21:24:09.447Z,144888.47
2023-04-11T21:26:39.742Z,144764.88
2023-04-11T21:29:07.102Z,144873.94
2023-04-11T21:31:34.738Z,144990.31
2023-04-11T21:34:02.283Z,144755.13
2023-04-11T21:36:29.676Z,144749.09
2023-04-11T21:38:58.106Z,144824.25
2023-04-11T21:41:25.809Z,144864.22
2023-04-11T21:43:58.109Z,144745.44
2023-04-11T21:46:30.645Z,144772.09
2023-04-11T21:49:06.552Z,144863.00
2023-04-11T21:51:33.924Z,144543.13
2023-04-11T21:54:07.034Z,144853.31
2023-04-11T21:56:34.502Z,144830.28
2023-04-11T21:59:04.415Z,144813.31
2023-04-11T22:01:34.951Z,144608.50
2023-04-11T22:04:03.404Z,144697.00
2023-04-11T22:06:31.031Z,144849.66
2023-04-11T22:09:01.268Z,144767.25
2023-04-11T22:11:32.026Z,144932.09
2023-04-11T22:14:04.533Z,144837.56
2023-04-11T22:16:37.536Z,144544.34
2023-04-11T22:19:08.632Z,144567.34
2023-04-11T22:21:36.533Z,144575.81
2023-04-11T22:24:04.543Z,144944.22
2023-04-11T22:26:34.765Z,144939.38
2023-04-11T22:29:05.672Z,144947.88
2023-04-11T22:31:38.663Z,144632.72
2023-04-11T22:34:08.296Z,144746.69
2023-04-11T22:36:36.091Z,144704.25
2023-04-11T22:39:07.948Z,144706.69
2023-04-11T22:41:38.350Z,144819.41
2023-04-11T22:44:08.901Z,144880.00
2023-04-11T22:46:41.688Z,144585.50
2023-04-11T22:49:14.681Z,144776.94
2023-04-11T22:51:41.791Z,144912.72
2023-04-11T22:54:09.713Z,144774.56
2023-04-11T22:56:37.591Z,144677.59
2023-04-11T22:59:04.878Z,144682.44
2023-04-11T23:01:33.163Z,144663.03
2023-04-11T23:04:01.742Z,144757.56
2023-04-11T23:06:29.138Z,144883.63
2023-04-11T23:08:56.680Z,144641.22
2023-04-11T23:11:24.862Z,144706.69
2023-04-11T23:13:55.420Z,144633.97
2023-04-11T23:16:23.149Z,144457.16
2023-04-11T23:18:53.427Z,144732.13
2023-04-11T23:21:20.916Z,144818.16
2023-04-11T23:23:52.198Z,144625.47
2023-04-11T23:26:20.667Z,144683.69
2023-04-11T23:28:48.193Z,144847.28
2023-04-11T23:31:18.865Z,144839.97
2023-04-11T23:33:46.527Z,144682.44
2023-04-11T23:36:16.689Z,144551.63
2023-04-11T23:38:47.251Z,144646.06
2023-04-11T23:41:14.911Z,144786.63
2023-04-11T23:43:42.021Z,144718.78
2023-04-11T23:46:09.295Z,144814.50
2023-04-11T23:48:37.105Z,144761.22
2023-04-11T23:51:04.669Z,144697.00
2023-04-11T23:53:32.029Z,144589.16
2023-04-11T23:56:00.254Z,144697.00
2023-04-11T23:58:28.587Z,144922.41
